Aeroporto :
LOGIN :

Iscrizione | Disclaimer

   EN    FR    IT 

 










Sommario :    VFR   VFR Marginale   IFR   IFR Intensivo   IFR Molto Intensivo
Visibilità : 
Base nubi : 
>= 8 km
>= 3000ft
5 / 8 km
1000 / 3000 ft
1500m / 5 km
500 / 1000 ft
800 / 1500m
200 / 500 ft
< 800m
< 200 ft
Simboli :   Temporali  Nebbia  Neve Forte  Precipitazioni Forti  Vento > 20 kt
SIGMETs :   Varie  Temporali  Ghiacco  Turbolenza  Onda orograficha  Ceneri Vulcaniche







- Altitudine del aeroporto : 124 ft
- Codice IATA : AVN
- Carte del aeroporto


LFMV - Avignon Caumont

ULTIMO METAR :
  • 161230Z AUTO VRB01KT CAVOK 16/04 Q1031 NOSIG

METARs OBSOLETI :
  • 161200Z AUTO VRB02KT CAVOK 15/03 Q1031 NOSIG
  • 161130Z AUTO VRB01KT CAVOK 13/03 Q1031 NOSIG
  • 161100Z AUTO 33003KT 260V360 CAVOK 12/02 Q1032 NOSIG
  • 161030Z AUTO VRB03KT CAVOK 10/03 Q1032 NOSIG
  • 161000Z AUTO VRB03KT CAVOK 09/02 Q1032 NOSIG

TAF TAF LFMV
Valido dal 16 a 09 ore il 17 a 09 ore UTC


160800Z 1609/1709 VRB03KT 6000 NSC
BECMG 1609/1611 CAVOK
TEMPO 1619/1709 2500 BR BKN010
TEMPO 1619/1709 0500 FG VV///
ATIS : +33 4 90 84 32 84
Nessun NOTAM noto per questo aeroporto.



MetMap, La meteo Aeronautica in un colpo d'occhio ! - Copyright ORBIFLY Dicembre 2007 - Disclaimer

ORBIFLY MET'MAP TEAM :

Programmazione e sviluppo : Alexandra Zaïnal
Concezione e sviluppo : Baudouin d'Aumeries
Co-Programmazione e sviluppo : Marc-Olivier Méhu
Supporto tecnico e logistico : Manuel Goepfert
Aiuto per la traduzione : Arnaldo La Scala

Contatto : metmap@orbifly.com




FONTI E CREDITI :

   NOAA